createdAt,value
2022-12-03T00:00:45.053Z,24.15
2022-12-03T00:04:46.741Z,28.92
2022-12-03T00:08:48.412Z,30.95
2022-12-03T00:12:50.094Z,28.33
2022-12-03T00:16:51.769Z,30.20
2022-12-03T00:20:53.466Z,26.83
2022-12-03T00:24:55.407Z,36.50
2022-12-03T00:28:57.976Z,32.85
2022-12-03T00:32:59.643Z,30.83
2022-12-03T00:37:03.105Z,30.15
2022-12-03T00:41:04.952Z,31.42
2022-12-03T00:45:07.132Z,26.73
2022-12-03T00:49:09.077Z,31.20
2022-12-03T00:53:10.757Z,30.25
2022-12-03T00:57:12.480Z,27.08
2022-12-03T01:01:15.720Z,30.48
2022-12-03T01:05:18.327Z,32.10
2022-12-03T01:09:20.143Z,31.73
2022-12-03T01:13:21.825Z,27.13
2022-12-03T01:17:23.557Z,34.33
2022-12-03T01:21:25.247Z,24.77
2022-12-03T01:25:26.963Z,29.08
2022-12-03T01:29:28.636Z,23.63
2022-12-03T01:33:30.468Z,31.67
2022-12-03T01:37:32.226Z,30.02
2022-12-03T01:41:35.051Z,28.85
2022-12-03T01:45:36.787Z,24.02
2022-12-03T01:49:53.171Z,28.88
2022-12-03T01:53:54.836Z,32.97
2022-12-03T01:58:00.914Z,27.75
2022-12-03T02:02:24.245Z,33.20
2022-12-03T02:06:30.109Z,34.70
2022-12-03T02:10:36.167Z,30.13
2022-12-03T02:14:37.944Z,31.48
2022-12-03T02:18:39.676Z,29.55
2022-12-03T02:23:28.701Z,34.80
2022-12-03T02:27:30.528Z,30.20
2022-12-03T02:31:33.207Z,31.63
2022-12-03T02:35:37.324Z,34.22
2022-12-03T02:39:43.052Z,26.83
2022-12-03T02:43:44.677Z,34.08
2022-12-03T02:47:51.524Z,27.00
2022-12-03T02:51:53.700Z,32.75
2022-12-03T02:55:59.153Z,28.38
2022-12-03T03:00:00.953Z,25.75
2022-12-03T03:04:03.393Z,29.27
2022-12-03T03:08:06.584Z,26.77
2022-12-03T03:12:09.743Z,32.95
2022-12-03T03:16:11.581Z,31.33
2022-12-03T03:20:13.964Z,37.55
2022-12-03T03:24:16.488Z,27.20
2022-12-03T03:28:18.917Z,24.52
2022-12-03T03:32:21.091Z,30.30
2022-12-03T03:36:23.420Z,29.88
2022-12-03T03:40:26.205Z,30.02
2022-12-03T03:44:29.421Z,31.13
2022-12-03T03:48:31.977Z,32.40
2022-12-03T03:52:34.486Z,23.70
2022-12-03T03:56:36.363Z,26.95
2022-12-03T04:00:38.190Z,26.60
2022-12-03T04:04:39.965Z,27.63
2022-12-03T04:08:41.752Z,28.10
2022-12-03T04:12:55.546Z,28.83
2022-12-03T04:16:57.244Z,25.15
2022-12-03T04:21:18.972Z,27.10
2022-12-03T04:25:39.316Z,32.30
2022-12-03T04:29:41.126Z,25.95
2022-12-03T04:34:01.525Z,25.15
2022-12-03T04:38:03.293Z,29.10
2022-12-03T04:42:06.306Z,28.33
2022-12-03T04:46:08.071Z,36.45
2022-12-03T04:50:10.351Z,31.90
2022-12-03T04:54:12.110Z,30.73
2022-12-03T04:58:13.839Z,33.10
2022-12-03T05:02:15.629Z,29.55
2022-12-03T05:06:17.477Z,32.70
2022-12-03T05:10:19.311Z,32.97
2022-12-03T05:14:20.985Z,33.88
2022-12-03T05:18:22.694Z,37.72
2022-12-03T05:22:24.393Z,33.45
2022-12-03T05:26:26.178Z,34.38
2022-12-03T05:30:28.072Z,31.73
2022-12-03T05:34:31.685Z,36.30
2022-12-03T05:38:33.511Z,39.35
2022-12-03T05:42:53.823Z,34.30
2022-12-03T05:46:55.539Z,35.95
2022-12-03T05:50:57.197Z,33.70
2022-12-03T05:54:58.962Z,29.85
2022-12-03T05:59:00.978Z,34.40
2022-12-03T06:03:02.971Z,29.98
2022-12-03T06:07:06.632Z,29.80
2022-12-03T06:11:11.412Z,29.60
2022-12-03T06:15:14.760Z,31.70
2022-12-03T06:19:16.477Z,33.53
2022-12-03T06:23:18.130Z,26.90
2022-12-03T06:27:20.580Z,28.27
2022-12-03T06:31:23.253Z,32.17
2022-12-03T06:35:25.077Z,34.92
2022-12-03T06:39:27.262Z,26.48
2022-12-03T06:43:30.999Z,29.65
2022-12-03T06:47:32.716Z,29.20
2022-12-03T06:51:34.538Z,35.15
2022-12-03T06:55:36.430Z,33.85
2022-12-03T06:59:38.215Z,33.40
2022-12-03T07:03:39.997Z,36.88
2022-12-03T07:07:41.760Z,33.30
2022-12-03T07:11:43.571Z,30.13
2022-12-03T07:15:45.277Z,35.83
2022-12-03T07:19:47.038Z,35.40
2022-12-03T07:23:48.769Z,30.70
2022-12-03T07:27:50.680Z,34.97
2022-12-03T07:31:52.480Z,32.05
2022-12-03T07:35:54.285Z,36.08
2022-12-03T07:39:55.986Z,26.02
2022-12-03T07:43:57.671Z,37.88
2022-12-03T07:47:59.387Z,36.10
2022-12-03T07:52:01.119Z,36.15
2022-12-03T07:56:06.434Z,33.85
2022-12-03T08:00:08.516Z,34.60
2022-12-03T08:04:11.458Z,36.53
2022-12-03T08:08:13.314Z,39.58
2022-12-03T08:12:17.539Z,37.85
2022-12-03T08:16:22.088Z,41.55
2022-12-03T08:20:26.533Z,42.00
2022-12-03T08:24:29.326Z,33.42
2022-12-03T08:28:31.998Z,33.85
2022-12-03T08:32:33.687Z,38.53
2022-12-03T08:36:36.568Z,37.97
2022-12-03T08:40:45.069Z,33.20
2022-12-03T08:44:47.585Z,37.58
2022-12-03T08:48:49.777Z,36.42
2022-12-03T08:52:53.442Z,32.08
2022-12-03T08:56:55.435Z,39.42
2022-12-03T09:01:02.975Z,39.03
2022-12-03T09:05:20.151Z,32.73
2022-12-03T09:09:23.049Z,32.80
2022-12-03T09:13:24.722Z,27.42
2022-12-03T09:17:26.671Z,36.10
2022-12-03T09:21:28.379Z,40.80
2022-12-03T09:25:32.110Z,29.75
2022-12-03T09:29:33.922Z,39.90
2022-12-03T09:33:35.826Z,41.25
2022-12-03T09:37:37.689Z,35.17
2022-12-03T09:41:39.520Z,26.38
2022-12-03T09:45:41.399Z,32.30
2022-12-03T09:49:43.489Z,33.35
2022-12-03T09:53:46.343Z,34.20
2022-12-03T09:57:48.870Z,29.77
2022-12-03T10:01:51.985Z,35.28
2022-12-03T10:05:54.722Z,32.42
2022-12-03T10:09:56.584Z,30.30
2022-12-03T10:13:58.860Z,30.95
2022-12-03T10:18:05.985Z,31.33
2022-12-03T10:22:07.672Z,32.10
2022-12-03T10:26:09.531Z,33.83
2022-12-03T10:30:28.847Z,38.78
2022-12-03T10:34:36.467Z,36.78
2022-12-03T10:38:38.190Z,38.47
2022-12-03T10:42:41.049Z,39.97
2022-12-03T10:46:43.412Z,39.33
2022-12-03T10:50:56.430Z,37.45
2022-12-03T10:54:58.394Z,31.33
2022-12-03T10:59:00.074Z,38.33
2022-12-03T11:03:01.835Z,46.97
2022-12-03T11:07:12.243Z,42.13
2022-12-03T11:11:27.644Z,45.05
2022-12-03T11:15:44.297Z,43.88
2022-12-03T11:19:47.435Z,38.10
2022-12-03T11:23:52.134Z,45.92
2022-12-03T11:28:32.994Z,42.55
2022-12-03T11:32:43.669Z,41.13
2022-12-03T11:37:10.319Z,44.17
2022-12-03T11:41:19.688Z,39.00
2022-12-03T11:45:39.809Z,42.38
2022-12-03T11:49:47.109Z,40.80
2022-12-03T11:53:50.454Z,41.33
2022-12-03T11:57:59.424Z,42.10
2022-12-03T12:02:01.090Z,47.35
2022-12-03T12:06:10.787Z,43.03
2022-12-03T12:10:12.540Z,51.13
2022-12-03T12:14:14.364Z,51.05
2022-12-03T12:18:39.114Z,43.65
2022-12-03T12:22:40.823Z,41.88
2022-12-03T12:26:51.393Z,34.72
2022-12-03T12:30:53.092Z,36.88
2022-12-03T12:35:00.294Z,36.97
2022-12-03T12:39:02.110Z,29.58
2022-12-03T12:43:18.911Z,42.67
2022-12-03T12:47:26.848Z,40.10
2022-12-03T12:51:28.690Z,38.35
2022-12-03T12:55:30.465Z,45.72
2022-12-03T12:59:32.685Z,34.45
2022-12-03T13:03:38.077Z,40.72
2022-12-03T13:07:41.508Z,46.38
2022-12-03T13:11:46.851Z,44.28
2022-12-03T13:15:52.287Z,35.38
2022-12-03T13:20:03.651Z,38.67
2022-12-03T13:24:36.687Z,38.30
2022-12-03T13:28:41.375Z,38.08
2022-12-03T13:32:43.873Z,30.27
2022-12-03T13:36:50.547Z,35.22
2022-12-03T13:41:01.152Z,40.33
2022-12-03T13:45:08.982Z,39.13
2022-12-03T13:49:21.049Z,40.33
2022-12-03T13:53:28.050Z,34.55
2022-12-03T13:57:29.742Z,35.97
2022-12-03T14:01:31.497Z,44.00
2022-12-03T14:05:33.254Z,46.65
2022-12-03T14:09:35.061Z,53.45
2022-12-03T14:13:36.700Z,52.45
2022-12-03T14:17:38.443Z,50.75
2022-12-03T14:21:40.272Z,49.85
2022-12-03T14:25:44.055Z,44.65
2022-12-03T14:29:45.818Z,41.90
2022-12-03T14:33:47.571Z,50.60
2022-12-03T14:37:49.223Z,44.30
2022-12-03T14:42:09.288Z,50.33
2022-12-03T14:46:11.000Z,51.85
2022-12-03T14:50:14.562Z,51.35
2022-12-03T14:54:16.363Z,55.13
2022-12-03T14:58:18.174Z,48.42
2022-12-03T15:02:19.936Z,45.38
2022-12-03T15:06:21.680Z,48.22
2022-12-03T15:10:23.428Z,47.83
2022-12-03T15:14:25.195Z,52.58
2022-12-03T15:18:27.010Z,38.83
2022-12-03T15:22:28.648Z,51.58
2022-12-03T15:26:30.547Z,48.45
2022-12-03T15:30:35.360Z,42.25
2022-12-03T15:34:37.058Z,41.75
2022-12-03T15:38:38.725Z,44.95
2022-12-03T15:42:40.424Z,38.38
2022-12-03T15:46:42.135Z,33.78
2022-12-03T15:50:43.926Z,38.55
2022-12-03T15:54:46.218Z,35.40
2022-12-03T15:58:47.948Z,34.78
2022-12-03T16:02:53.077Z,30.33
2022-12-03T16:06:55.001Z,31.40
2022-12-03T16:10:56.681Z,32.40
2022-12-03T16:14:58.483Z,37.33
2022-12-03T16:19:00.250Z,36.90
2022-12-03T16:23:01.993Z,32.13
2022-12-03T16:27:03.880Z,36.83
2022-12-03T16:31:05.857Z,38.28
2022-12-03T16:35:08.001Z,36.47
2022-12-03T16:39:09.768Z,36.58
2022-12-03T16:43:11.521Z,39.97
2022-12-03T16:47:13.232Z,36.53
2022-12-03T16:51:15.454Z,37.75
2022-12-03T16:55:17.227Z,36.95
2022-12-03T16:59:18.934Z,36.15
2022-12-03T17:03:21.632Z,38.67
2022-12-03T17:07:23.401Z,35.40
2022-12-03T17:11:25.169Z,37.72
2022-12-03T17:15:26.858Z,36.97
2022-12-03T17:19:28.554Z,38.15
2022-12-03T17:23:30.394Z,39.40
2022-12-03T17:27:32.093Z,47.78
2022-12-03T17:31:40.031Z,33.28
2022-12-03T17:35:45.609Z,43.38
2022-12-03T17:39:47.295Z,42.35
2022-12-03T17:43:49.137Z,37.40
2022-12-03T17:47:50.836Z,40.42
2022-12-03T17:51:52.636Z,37.53
2022-12-03T17:55:54.460Z,49.10
2022-12-03T17:59:56.616Z,67.85
2022-12-03T18:03:58.668Z,35.58
2022-12-03T18:08:00.582Z,43.13
2022-12-03T18:12:02.453Z,39.72
2022-12-03T18:16:04.430Z,38.28
2022-12-03T18:20:06.988Z,39.80
2022-12-03T18:24:09.371Z,40.67
2022-12-03T18:28:11.145Z,38.33
2022-12-03T18:32:27.559Z,39.58
2022-12-03T18:36:34.881Z,42.92
2022-12-03T18:40:37.203Z,50.88
2022-12-03T18:44:38.938Z,52.20
2022-12-03T18:48:45.619Z,43.17
2022-12-03T18:52:47.304Z,43.50
2022-12-03T18:56:48.928Z,50.10
2022-12-03T19:00:50.671Z,45.38
2022-12-03T19:04:52.414Z,46.45
2022-12-03T19:08:54.569Z,48.88
2022-12-03T19:12:56.302Z,49.28
2022-12-03T19:16:58.002Z,46.38
2022-12-03T19:20:59.935Z,45.33
2022-12-03T19:25:02.350Z,57.78
2022-12-03T19:29:04.423Z,49.33
2022-12-03T19:33:06.114Z,40.13
2022-12-03T19:37:07.861Z,42.97
2022-12-03T19:41:11.661Z,52.58
2022-12-03T19:45:13.411Z,56.25
2022-12-03T19:49:16.809Z,44.42
2022-12-03T19:53:20.234Z,43.30
2022-12-03T19:57:23.609Z,50.80
2022-12-03T20:01:28.418Z,53.95
2022-12-03T20:05:33.307Z,44.95
2022-12-03T20:09:35.216Z,53.30
2022-12-03T20:13:37.024Z,45.95
2022-12-03T20:17:38.724Z,55.28
2022-12-03T20:21:41.211Z,55.45
2022-12-03T20:25:42.871Z,54.17
2022-12-03T20:29:44.696Z,50.22
2022-12-03T20:33:49.656Z,61.25
2022-12-03T20:37:51.325Z,51.17
2022-12-03T20:41:53.029Z,46.95
2022-12-03T20:45:59.547Z,34.88
2022-12-03T20:50:04.510Z,51.25
2022-12-03T20:54:06.256Z,41.63
2022-12-03T20:58:07.949Z,44.10
2022-12-03T21:02:10.587Z,41.65
2022-12-03T21:06:13.422Z,41.90
2022-12-03T21:10:33.710Z,50.20
2022-12-03T21:14:35.949Z,45.30
2022-12-03T21:18:37.781Z,43.20
2022-12-03T21:22:39.448Z,48.75
2022-12-03T21:26:41.709Z,45.10
2022-12-03T21:30:43.470Z,54.08
2022-12-03T21:34:45.231Z,46.92
2022-12-03T21:38:48.289Z,48.70
2022-12-03T21:42:50.054Z,53.38
2022-12-03T21:47:11.220Z,47.22
2022-12-03T21:51:14.769Z,39.00
2022-12-03T21:55:16.581Z,55.10
2022-12-03T21:59:18.308Z,38.38
2022-12-03T22:03:20.152Z,42.35
2022-12-03T22:07:24.666Z,39.55
2022-12-03T22:11:26.558Z,44.83
2022-12-03T22:15:28.397Z,40.38
2022-12-03T22:19:30.419Z,47.75
2022-12-03T22:23:32.657Z,41.03
2022-12-03T22:27:34.325Z,40.10
2022-12-03T22:31:36.123Z,40.03
2022-12-03T22:35:37.822Z,41.30
2022-12-03T22:39:39.673Z,43.72
2022-12-03T22:43:41.407Z,39.05
2022-12-03T22:47:43.177Z,38.60
2022-12-03T22:51:46.295Z,52.85
2022-12-03T22:55:59.790Z,51.55
2022-12-03T23:00:01.846Z,46.80
2022-12-03T23:04:05.097Z,35.75
2022-12-03T23:08:08.645Z,43.25
2022-12-03T23:12:10.511Z,45.55
2022-12-03T23:16:24.582Z,45.90
2022-12-03T23:20:27.128Z,44.33
2022-12-03T23:24:29.430Z,36.72
2022-12-03T23:28:32.626Z,44.78
2022-12-03T23:32:35.911Z,47.80
2022-12-03T23:36:37.675Z,46.95
2022-12-03T23:40:42.355Z,51.13
2022-12-03T23:44:48.227Z,48.75
2022-12-03T23:48:50.893Z,49.22
2022-12-03T23:52:53.038Z,44.88
2022-12-03T23:56:55.001Z,42.17
